sensor_id;sensor_type;location;lat;lon;timestamp;P1;durP1;ratioP1;P2;durP2;ratioP2
35971;SDS011;22052;0.000;0.000;2023-02-01T00:01:36;12.55;;;3.45;;
35971;SDS011;22052;0.000;0.000;2023-02-01T00:04:03;12.15;;;3.42;;
35971;SDS011;22052;0.000;0.000;2023-02-01T00:06:29;9.60;;;3.40;;
35971;SDS011;22052;0.000;0.000;2023-02-01T00:08:55;8.13;;;3.05;;
35971;SDS011;22052;0.000;0.000;2023-02-01T00:11:22;8.38;;;2.85;;
35971;SDS011;22052;0.000;0.000;2023-02-01T00:13:48;12.20;;;3.15;;
35971;SDS011;22052;0.000;0.000;2023-02-01T00:16:16;10.38;;;3.10;;
35971;SDS011;22052;0.000;0.000;2023-02-01T00:18:43;8.43;;;2.97;;
35971;SDS011;22052;0.000;0.000;2023-02-01T00:21:13;10.82;;;3.08;;
35971;SDS011;22052;0.000;0.000;2023-02-01T00:23:39;9.30;;;2.90;;
35971;SDS011;22052;0.000;0.000;2023-02-01T00:26:07;10.80;;;3.40;;
35971;SDS011;22052;0.000;0.000;2023-02-01T00:28:33;7.95;;;3.58;;
35971;SDS011;22052;0.000;0.000;2023-02-01T00:31:01;8.73;;;3.20;;
35971;SDS011;22052;0.000;0.000;2023-02-01T00:33:28;8.75;;;3.10;;
35971;SDS011;22052;0.000;0.000;2023-02-01T00:35:58;8.65;;;3.03;;
35971;SDS011;22052;0.000;0.000;2023-02-01T00:38:25;7.65;;;3.08;;
35971;SDS011;22052;0.000;0.000;2023-02-01T00:40:51;8.65;;;3.13;;
35971;SDS011;22052;0.000;0.000;2023-02-01T00:43:17;8.18;;;3.00;;
35971;SDS011;22052;0.000;0.000;2023-02-01T00:45:45;6.88;;;3.22;;
35971;SDS011;22052;0.000;0.000;2023-02-01T00:48:11;12.18;;;3.05;;
35971;SDS011;22052;0.000;0.000;2023-02-01T00:50:43;8.38;;;3.00;;
35971;SDS011;22052;0.000;0.000;2023-02-01T00:53:10;11.65;;;3.35;;
35971;SDS011;22052;0.000;0.000;2023-02-01T00:55:36;7.80;;;3.22;;
35971;SDS011;22052;0.000;0.000;2023-02-01T00:58:03;6.13;;;2.83;;
35971;SDS011;22052;0.000;0.000;2023-02-01T01:00:31;6.95;;;2.67;;
35971;SDS011;22052;0.000;0.000;2023-02-01T01:02:57;7.07;;;3.05;;
35971;SDS011;22052;0.000;0.000;2023-02-01T01:05:24;10.52;;;3.08;;
35971;SDS011;22052;0.000;0.000;2023-02-01T01:07:52;7.82;;;2.92;;
35971;SDS011;22052;0.000;0.000;2023-02-01T01:10:19;5.35;;;3.00;;
35971;SDS011;22052;0.000;0.000;2023-02-01T01:12:45;7.95;;;3.05;;
35971;SDS011;22052;0.000;0.000;2023-02-01T01:15:11;6.13;;;2.58;;
35971;SDS011;22052;0.000;0.000;2023-02-01T01:17:37;6.50;;;2.50;;
35971;SDS011;22052;0.000;0.000;2023-02-01T01:20:03;6.38;;;2.28;;
35971;SDS011;22052;0.000;0.000;2023-02-01T01:22:30;5.85;;;2.60;;
35971;SDS011;22052;0.000;0.000;2023-02-01T01:24:56;7.15;;;2.78;;
35971;SDS011;22052;0.000;0.000;2023-02-01T01:27:22;9.65;;;2.85;;
35971;SDS011;22052;0.000;0.000;2023-02-01T01:29:50;6.63;;;2.45;;
35971;SDS011;22052;0.000;0.000;2023-02-01T01:32:16;7.82;;;2.88;;
35971;SDS011;22052;0.000;0.000;2023-02-01T01:34:42;8.35;;;3.10;;
35971;SDS011;22052;0.000;0.000;2023-02-01T01:37:09;9.85;;;3.00;;
35971;SDS011;22052;0.000;0.000;2023-02-01T01:39:35;6.90;;;2.75;;
35971;SDS011;22052;0.000;0.000;2023-02-01T01:42:01;8.20;;;2.70;;
35971;SDS011;22052;0.000;0.000;2023-02-01T01:47:12;8.63;;;2.92;;
35971;SDS011;22052;0.000;0.000;2023-02-01T01:49:39;7.78;;;2.83;;
35971;SDS011;22052;0.000;0.000;2023-02-01T01:52:06;6.70;;;2.65;;
35971;SDS011;22052;0.000;0.000;2023-02-01T01:54:34;7.07;;;2.58;;
35971;SDS011;22052;0.000;0.000;2023-02-01T01:57:04;5.85;;;2.80;;
35971;SDS011;22052;0.000;0.000;2023-02-01T01:59:31;9.75;;;2.88;;
35971;SDS011;22052;0.000;0.000;2023-02-01T02:01:58;6.10;;;2.38;;
35971;SDS011;22052;0.000;0.000;2023-02-01T02:04:24;7.18;;;2.90;;
35971;SDS011;22052;0.000;0.000;2023-02-01T02:06:54;7.05;;;2.80;;
35971;SDS011;22052;0.000;0.000;2023-02-01T02:09:22;5.53;;;2.42;;
35971;SDS011;22052;0.000;0.000;2023-02-01T02:11:48;7.45;;;2.90;;
35971;SDS011;22052;0.000;0.000;2023-02-01T02:14:15;6.95;;;2.72;;
35971;SDS011;22052;0.000;0.000;2023-02-01T02:27:45;6.63;;;2.90;;
35971;SDS011;22052;0.000;0.000;2023-02-01T02:32:52;5.43;;;2.50;;
35971;SDS011;22052;0.000;0.000;2023-02-01T02:35:29;7.22;;;2.60;;
35971;SDS011;22052;0.000;0.000;2023-02-01T02:40:36;6.05;;;2.40;;
35971;SDS011;22052;0.000;0.000;2023-02-01T02:46:04;6.28;;;2.60;;
35971;SDS011;22052;0.000;0.000;2023-02-01T02:49:23;4.68;;;2.35;;
35971;SDS011;22052;0.000;0.000;2023-02-01T02:52:02;6.07;;;2.28;;
35971;SDS011;22052;0.000;0.000;2023-02-01T02:54:47;6.07;;;2.85;;
35971;SDS011;22052;0.000;0.000;2023-02-01T03:00:02;5.75;;;2.55;;
35971;SDS011;22052;0.000;0.000;2023-02-01T03:02:47;6.32;;;2.83;;
35971;SDS011;22052;0.000;0.000;2023-02-01T03:05:33;5.50;;;2.40;;
35971;SDS011;22052;0.000;0.000;2023-02-01T03:10:40;4.57;;;2.42;;
35971;SDS011;22052;0.000;0.000;2023-02-01T03:13:08;5.78;;;2.53;;
35971;SDS011;22052;0.000;0.000;2023-02-01T03:15:38;5.05;;;2.40;;
35971;SDS011;22052;0.000;0.000;2023-02-01T03:18:28;5.03;;;2.58;;
35971;SDS011;22052;0.000;0.000;2023-02-01T03:20:52;5.28;;;2.65;;
35971;SDS011;22052;0.000;0.000;2023-02-01T03:23:20;5.40;;;2.13;;
35971;SDS011;22052;0.000;0.000;2023-02-01T03:25:48;5.75;;;2.50;;
35971;SDS011;22052;0.000;0.000;2023-02-01T03:28:15;7.40;;;2.83;;
35971;SDS011;22052;0.000;0.000;2023-02-01T03:30:46;4.90;;;2.45;;
35971;SDS011;22052;0.000;0.000;2023-02-01T03:33:16;5.50;;;2.75;;
35971;SDS011;22052;0.000;0.000;2023-02-01T03:40:45;6.65;;;2.92;;
35971;SDS011;22052;0.000;0.000;2023-02-01T03:43:14;6.90;;;2.72;;
35971;SDS011;22052;0.000;0.000;2023-02-01T03:45:52;5.22;;;2.90;;
35971;SDS011;22052;0.000;0.000;2023-02-01T03:48:20;5.70;;;2.90;;
35971;SDS011;22052;0.000;0.000;2023-02-01T03:50:49;5.88;;;2.25;;
35971;SDS011;22052;0.000;0.000;2023-02-01T03:53:17;5.13;;;2.60;;
35971;SDS011;22052;0.000;0.000;2023-02-01T03:55:45;6.03;;;2.83;;
35971;SDS011;22052;0.000;0.000;2023-02-01T03:58:16;6.13;;;2.85;;
35971;SDS011;22052;0.000;0.000;2023-02-01T04:01:01;6.03;;;2.70;;
35971;SDS011;22052;0.000;0.000;2023-02-01T04:03:27;6.95;;;2.70;;
35971;SDS011;22052;0.000;0.000;2023-02-01T04:05:54;5.40;;;2.75;;
35971;SDS011;22052;0.000;0.000;2023-02-01T04:08:21;5.82;;;2.97;;
35971;SDS011;22052;0.000;0.000;2023-02-01T04:10:47;4.78;;;2.60;;
35971;SDS011;22052;0.000;0.000;2023-02-01T04:13:14;5.35;;;2.50;;
35971;SDS011;22052;0.000;0.000;2023-02-01T04:15:40;7.28;;;2.97;;
35971;SDS011;22052;0.000;0.000;2023-02-01T04:18:06;6.20;;;2.67;;
35971;SDS011;22052;0.000;0.000;2023-02-01T04:20:32;5.90;;;2.60;;
35971;SDS011;22052;0.000;0.000;2023-02-01T04:22:59;5.65;;;3.08;;
35971;SDS011;22052;0.000;0.000;2023-02-01T04:25:28;6.82;;;2.75;;
35971;SDS011;22052;0.000;0.000;2023-02-01T04:27:54;5.88;;;3.03;;
35971;SDS011;22052;0.000;0.000;2023-02-01T04:30:20;5.20;;;2.90;;
35971;SDS011;22052;0.000;0.000;2023-02-01T04:32:48;6.43;;;3.13;;
35971;SDS011;22052;0.000;0.000;2023-02-01T04:35:15;4.70;;;2.58;;
35971;SDS011;22052;0.000;0.000;2023-02-01T04:37:42;5.20;;;2.83;;
35971;SDS011;22052;0.000;0.000;2023-02-01T04:40:09;6.43;;;3.28;;
35971;SDS011;22052;0.000;0.000;2023-02-01T04:42:35;6.15;;;2.72;;
35971;SDS011;22052;0.000;0.000;2023-02-01T04:45:01;5.75;;;2.75;;
35971;SDS011;22052;0.000;0.000;2023-02-01T04:47:28;6.85;;;3.40;;
35971;SDS011;22052;0.000;0.000;2023-02-01T04:49:54;5.20;;;2.92;;
35971;SDS011;22052;0.000;0.000;2023-02-01T04:52:20;4.78;;;2.72;;
35971;SDS011;22052;0.000;0.000;2023-02-01T04:54:46;5.32;;;2.65;;
35971;SDS011;22052;0.000;0.000;2023-02-01T04:57:12;5.53;;;2.97;;
35971;SDS011;22052;0.000;0.000;2023-02-01T04:59:40;7.13;;;3.15;;
35971;SDS011;22052;0.000;0.000;2023-02-01T05:02:06;5.68;;;2.45;;
35971;SDS011;22052;0.000;0.000;2023-02-01T05:04:32;5.40;;;2.70;;
35971;SDS011;22052;0.000;0.000;2023-02-01T05:06:58;6.10;;;2.83;;
35971;SDS011;22052;0.000;0.000;2023-02-01T05:09:24;6.45;;;3.20;;
35971;SDS011;22052;0.000;0.000;2023-02-01T05:11:50;5.63;;;2.65;;
35971;SDS011;22052;0.000;0.000;2023-02-01T05:14:35;5.97;;;2.75;;
35971;SDS011;22052;0.000;0.000;2023-02-01T05:17:01;5.95;;;2.88;;
35971;SDS011;22052;0.000;0.000;2023-02-01T05:19:28;5.00;;;2.80;;
35971;SDS011;22052;0.000;0.000;2023-02-01T05:21:54;5.95;;;3.03;;
35971;SDS011;22052;0.000;0.000;2023-02-01T05:24:20;4.80;;;2.72;;
35971;SDS011;22052;0.000;0.000;2023-02-01T05:26:47;7.07;;;2.67;;
35971;SDS011;22052;0.000;0.000;2023-02-01T05:29:14;5.18;;;2.70;;
35971;SDS011;22052;0.000;0.000;2023-02-01T05:31:40;6.60;;;3.08;;
35971;SDS011;22052;0.000;0.000;2023-02-01T05:34:07;7.13;;;3.10;;
35971;SDS011;22052;0.000;0.000;2023-02-01T05:36:33;6.63;;;3.40;;
35971;SDS011;22052;0.000;0.000;2023-02-01T05:38:59;6.88;;;3.05;;
35971;SDS011;22052;0.000;0.000;2023-02-01T05:41:25;6.97;;;3.20;;
35971;SDS011;22052;0.000;0.000;2023-02-01T05:43:52;8.65;;;3.25;;
35971;SDS011;22052;0.000;0.000;2023-02-01T05:46:18;7.45;;;2.70;;
35971;SDS011;22052;0.000;0.000;2023-02-01T05:48:44;6.68;;;3.30;;
35971;SDS011;22052;0.000;0.000;2023-02-01T05:51:11;6.32;;;3.38;;
35971;SDS011;22052;0.000;0.000;2023-02-01T05:53:37;7.93;;;3.03;;
35971;SDS011;22052;0.000;0.000;2023-02-01T05:56:04;8.98;;;2.80;;
35971;SDS011;22052;0.000;0.000;2023-02-01T05:58:30;6.90;;;3.08;;
35971;SDS011;22052;0.000;0.000;2023-02-01T06:00:58;6.97;;;2.65;;
35971;SDS011;22052;0.000;0.000;2023-02-01T06:03:25;8.45;;;3.10;;
35971;SDS011;22052;0.000;0.000;2023-02-01T06:05:52;11.48;;;3.13;;
35971;SDS011;22052;0.000;0.000;2023-02-01T06:08:18;8.70;;;3.05;;
35971;SDS011;22052;0.000;0.000;2023-02-01T06:10:44;7.18;;;2.75;;
35971;SDS011;22052;0.000;0.000;2023-02-01T06:13:11;7.70;;;2.90;;
35971;SDS011;22052;0.000;0.000;2023-02-01T06:15:37;8.10;;;3.03;;
35971;SDS011;22052;0.000;0.000;2023-02-01T06:18:03;6.88;;;2.90;;
35971;SDS011;22052;0.000;0.000;2023-02-01T06:20:30;10.48;;;2.70;;
35971;SDS011;22052;0.000;0.000;2023-02-01T06:22:56;8.20;;;2.88;;
35971;SDS011;22052;0.000;0.000;2023-02-01T06:25:22;11.02;;;3.15;;
35971;SDS011;22052;0.000;0.000;2023-02-01T06:27:48;10.50;;;3.58;;
35971;SDS011;22052;0.000;0.000;2023-02-01T06:30:15;9.55;;;3.13;;
35971;SDS011;22052;0.000;0.000;2023-02-01T06:32:41;10.20;;;2.95;;
35971;SDS011;22052;0.000;0.000;2023-02-01T06:35:08;9.98;;;2.75;;
35971;SDS011;22052;0.000;0.000;2023-02-01T06:37:38;11.23;;;3.20;;
35971;SDS011;22052;0.000;0.000;2023-02-01T06:40:05;9.05;;;3.00;;
35971;SDS011;22052;0.000;0.000;2023-02-01T06:42:31;8.52;;;3.08;;
35971;SDS011;22052;0.000;0.000;2023-02-01T06:44:57;10.35;;;3.05;;
35971;SDS011;22052;0.000;0.000;2023-02-01T06:47:24;9.48;;;2.83;;
35971;SDS011;22052;0.000;0.000;2023-02-01T06:49:50;11.57;;;3.15;;
35971;SDS011;22052;0.000;0.000;2023-02-01T06:52:16;8.13;;;3.28;;
35971;SDS011;22052;0.000;0.000;2023-02-01T06:54:43;8.82;;;2.83;;
35971;SDS011;22052;0.000;0.000;2023-02-01T06:57:09;9.20;;;3.47;;
35971;SDS011;22052;0.000;0.000;2023-02-01T06:59:35;8.45;;;2.75;;
35971;SDS011;22052;0.000;0.000;2023-02-01T07:02:01;14.23;;;3.45;;
35971;SDS011;22052;0.000;0.000;2023-02-01T07:04:28;8.02;;;2.92;;
35971;SDS011;22052;0.000;0.000;2023-02-01T07:06:55;10.55;;;2.85;;
35971;SDS011;22052;0.000;0.000;2023-02-01T07:09:21;11.55;;;3.65;;
35971;SDS011;22052;0.000;0.000;2023-02-01T07:11:48;8.25;;;3.13;;
35971;SDS011;22052;0.000;0.000;2023-02-01T07:14:14;8.77;;;3.25;;
35971;SDS011;22052;0.000;0.000;2023-02-01T07:16:40;8.38;;;2.95;;
35971;SDS011;22052;0.000;0.000;2023-02-01T07:19:07;8.63;;;3.00;;
35971;SDS011;22052;0.000;0.000;2023-02-01T07:21:33;9.93;;;3.80;;
35971;SDS011;22052;0.000;0.000;2023-02-01T07:23:59;8.90;;;2.95;;
35971;SDS011;22052;0.000;0.000;2023-02-01T07:26:25;9.30;;;3.45;;
35971;SDS011;22052;0.000;0.000;2023-02-01T07:28:52;11.88;;;3.95;;
35971;SDS011;22052;0.000;0.000;2023-02-01T07:31:18;11.63;;;3.58;;
35971;SDS011;22052;0.000;0.000;2023-02-01T07:33:46;9.43;;;2.90;;
35971;SDS011;22052;0.000;0.000;2023-02-01T07:36:14;11.25;;;3.10;;
35971;SDS011;22052;0.000;0.000;2023-02-01T07:38:41;11.63;;;3.00;;
35971;SDS011;22052;0.000;0.000;2023-02-01T07:41:07;12.25;;;3.40;;
35971;SDS011;22052;0.000;0.000;2023-02-01T07:43:34;10.40;;;3.40;;
35971;SDS011;22052;0.000;0.000;2023-02-01T07:46:01;11.95;;;3.03;;
35971;SDS011;22052;0.000;0.000;2023-02-01T07:48:28;7.18;;;2.95;;
35971;SDS011;22052;0.000;0.000;2023-02-01T07:50:59;11.77;;;3.05;;
35971;SDS011;22052;0.000;0.000;2023-02-01T07:53:25;9.07;;;3.15;;
35971;SDS011;22052;0.000;0.000;2023-02-01T07:55:52;7.57;;;3.10;;
35971;SDS011;22052;0.000;0.000;2023-02-01T07:58:18;7.18;;;2.97;;
35971;SDS011;22052;0.000;0.000;2023-02-01T08:00:45;12.85;;;3.10;;
35971;SDS011;22052;0.000;0.000;2023-02-01T08:03:30;9.00;;;3.30;;
35971;SDS011;22052;0.000;0.000;2023-02-01T08:05:56;8.63;;;2.78;;
35971;SDS011;22052;0.000;0.000;2023-02-01T08:08:23;8.88;;;2.90;;
35971;SDS011;22052;0.000;0.000;2023-02-01T08:11:08;9.57;;;3.30;;
35971;SDS011;22052;0.000;0.000;2023-02-01T08:14:00;9.50;;;3.10;;
35971;SDS011;22052;0.000;0.000;2023-02-01T08:16:28;11.05;;;3.28;;
35971;SDS011;22052;0.000;0.000;2023-02-01T08:18:55;9.25;;;3.35;;
35971;SDS011;22052;0.000;0.000;2023-02-01T08:21:23;11.45;;;3.33;;
35971;SDS011;22052;0.000;0.000;2023-02-01T08:23:50;8.93;;;2.83;;
35971;SDS011;22052;0.000;0.000;2023-02-01T08:26:20;8.82;;;3.42;;
35971;SDS011;22052;0.000;0.000;2023-02-01T08:28:48;11.13;;;3.58;;
35971;SDS011;22052;0.000;0.000;2023-02-01T08:31:17;11.00;;;3.05;;
35971;SDS011;22052;0.000;0.000;2023-02-01T08:33:56;9.07;;;3.30;;
35971;SDS011;22052;0.000;0.000;2023-02-01T08:36:48;10.75;;;3.20;;
35971;SDS011;22052;0.000;0.000;2023-02-01T08:39:35;9.40;;;2.63;;
35971;SDS011;22052;0.000;0.000;2023-02-01T08:42:27;12.65;;;3.20;;
35971;SDS011;22052;0.000;0.000;2023-02-01T08:54:28;10.20;;;3.17;;
35971;SDS011;22052;0.000;0.000;2023-02-01T08:56:55;11.13;;;3.13;;
35971;SDS011;22052;0.000;0.000;2023-02-01T08:59:21;10.13;;;3.00;;
35971;SDS011;22052;0.000;0.000;2023-02-01T09:01:48;9.80;;;3.35;;
35971;SDS011;22052;0.000;0.000;2023-02-01T09:04:14;8.10;;;3.40;;
35971;SDS011;22052;0.000;0.000;2023-02-01T09:06:40;7.95;;;3.10;;
35971;SDS011;22052;0.000;0.000;2023-02-01T09:09:07;12.02;;;3.22;;
35971;SDS011;22052;0.000;0.000;2023-02-01T09:14:44;12.02;;;3.45;;
35971;SDS011;22052;0.000;0.000;2023-02-01T09:17:11;9.82;;;3.30;;
35971;SDS011;22052;0.000;0.000;2023-02-01T09:19:38;11.30;;;3.20;;
35971;SDS011;22052;0.000;0.000;2023-02-01T09:22:05;11.77;;;3.08;;
35971;SDS011;22052;0.000;0.000;2023-02-01T09:24:31;10.23;;;3.15;;
35971;SDS011;22052;0.000;0.000;2023-02-01T09:26:57;11.43;;;3.00;;
35971;SDS011;22052;0.000;0.000;2023-02-01T09:29:24;8.88;;;3.30;;
35971;SDS011;22052;0.000;0.000;2023-02-01T09:31:50;8.07;;;2.92;;
35971;SDS011;22052;0.000;0.000;2023-02-01T09:34:17;9.68;;;3.30;;
35971;SDS011;22052;0.000;0.000;2023-02-01T09:36:43;8.57;;;2.90;;
35971;SDS011;22052;0.000;0.000;2023-02-01T09:39:09;9.43;;;3.25;;
35971;SDS011;22052;0.000;0.000;2023-02-01T09:46:57;8.48;;;2.80;;
35971;SDS011;22052;0.000;0.000;2023-02-01T09:49:27;10.63;;;3.15;;
35971;SDS011;22052;0.000;0.000;2023-02-01T09:51:54;9.05;;;2.85;;
35971;SDS011;22052;0.000;0.000;2023-02-01T09:54:23;9.90;;;2.85;;
35971;SDS011;22052;0.000;0.000;2023-02-01T09:59:29;10.52;;;3.22;;
35971;SDS011;22052;0.000;0.000;2023-02-01T10:02:00;7.70;;;2.80;;
35971;SDS011;22052;0.000;0.000;2023-02-01T10:20:18;11.43;;;3.58;;
35971;SDS011;22052;0.000;0.000;2023-02-01T10:25:30;11.23;;;3.13;;
35971;SDS011;22052;0.000;0.000;2023-02-01T10:27:59;11.90;;;3.30;;
35971;SDS011;22052;0.000;0.000;2023-02-01T10:30:30;13.05;;;3.15;;
35971;SDS011;22052;0.000;0.000;2023-02-01T10:33:32;12.15;;;3.85;;
35971;SDS011;22052;0.000;0.000;2023-02-01T10:36:10;8.73;;;3.35;;
35971;SDS011;22052;0.000;0.000;2023-02-01T10:54:39;12.05;;;3.60;;
35971;SDS011;22052;0.000;0.000;2023-02-01T10:57:19;10.27;;;3.15;;
35971;SDS011;22052;0.000;0.000;2023-02-01T10:59:46;8.93;;;3.08;;
35971;SDS011;22052;0.000;0.000;2023-02-01T11:02:30;10.32;;;2.97;;
35971;SDS011;22052;0.000;0.000;2023-02-01T11:05:02;8.93;;;2.95;;
35971;SDS011;22052;0.000;0.000;2023-02-01T11:23:15;11.13;;;2.95;;
35971;SDS011;22052;0.000;0.000;2023-02-01T11:28:50;9.02;;;2.97;;
35971;SDS011;22052;0.000;0.000;2023-02-01T11:34:49;10.55;;;3.00;;
35971;SDS011;22052;0.000;0.000;2023-02-01T11:39:52;10.15;;;3.40;;
35971;SDS011;22052;0.000;0.000;2023-02-01T11:42:20;10.27;;;3.40;;
35971;SDS011;22052;0.000;0.000;2023-02-01T11:44:46;13.18;;;3.28;;
35971;SDS011;22052;0.000;0.000;2023-02-01T11:47:20;12.93;;;3.08;;
35971;SDS011;22052;0.000;0.000;2023-02-01T11:49:47;10.85;;;3.33;;
35971;SDS011;22052;0.000;0.000;2023-02-01T11:52:20;8.00;;;2.88;;
35971;SDS011;22052;0.000;0.000;2023-02-01T12:03:08;9.80;;;3.42;;
35971;SDS011;22052;0.000;0.000;2023-02-01T12:05:56;10.75;;;3.70;;
35971;SDS011;22052;0.000;0.000;2023-02-01T12:08:43;12.65;;;3.80;;
35971;SDS011;22052;0.000;0.000;2023-02-01T12:11:43;10.02;;;3.42;;
35971;SDS011;22052;0.000;0.000;2023-02-01T12:27:32;9.20;;;2.83;;
35971;SDS011;22052;0.000;0.000;2023-02-01T12:35:42;9.80;;;2.58;;
35971;SDS011;22052;0.000;0.000;2023-02-01T12:41:14;10.48;;;3.42;;
35971;SDS011;22052;0.000;0.000;2023-02-01T12:43:58;9.02;;;3.30;;
35971;SDS011;22052;0.000;0.000;2023-02-01T12:46:32;12.68;;;3.03;;
35971;SDS011;22052;0.000;0.000;2023-02-01T12:49:06;10.27;;;3.20;;
35971;SDS011;22052;0.000;0.000;2023-02-01T12:51:35;14.18;;;3.00;;
35971;SDS011;22052;0.000;0.000;2023-02-01T12:56:43;13.73;;;3.40;;
35971;SDS011;22052;0.000;0.000;2023-02-01T12:59:31;12.35;;;3.70;;
35971;SDS011;22052;0.000;0.000;2023-02-01T13:04:52;12.65;;;3.53;;
35971;SDS011;22052;0.000;0.000;2023-02-01T13:07:42;10.32;;;3.30;;
35971;SDS011;22052;0.000;0.000;2023-02-01T13:13:09;12.63;;;3.13;;
35971;SDS011;22052;0.000;0.000;2023-02-01T13:15:54;9.68;;;3.60;;
35971;SDS011;22052;0.000;0.000;2023-02-01T13:18:23;15.68;;;3.72;;
35971;SDS011;22052;0.000;0.000;2023-02-01T13:20:56;12.30;;;2.97;;
35971;SDS011;22052;0.000;0.000;2023-02-01T13:23:28;12.93;;;3.17;;
35971;SDS011;22052;0.000;0.000;2023-02-01T13:25:55;8.38;;;2.65;;
35971;SDS011;22052;0.000;0.000;2023-02-01T13:33:55;8.88;;;3.13;;
35971;SDS011;22052;0.000;0.000;2023-02-01T13:36:32;14.10;;;3.15;;
35971;SDS011;22052;0.000;0.000;2023-02-01T13:44:22;14.73;;;3.50;;
35971;SDS011;22052;0.000;0.000;2023-02-01T13:46:50;9.85;;;3.30;;
35971;SDS011;22052;0.000;0.000;2023-02-01T13:49:22;10.20;;;3.40;;
35971;SDS011;22052;0.000;0.000;2023-02-01T13:51:51;13.43;;;3.40;;
35971;SDS011;22052;0.000;0.000;2023-02-01T13:54:31;14.60;;;3.20;;
35971;SDS011;22052;0.000;0.000;2023-02-01T13:56:59;12.98;;;3.22;;
35971;SDS011;22052;0.000;0.000;2023-02-01T14:04:52;13.68;;;3.10;;
35971;SDS011;22052;0.000;0.000;2023-02-01T14:07:21;14.13;;;3.75;;
35971;SDS011;22052;0.000;0.000;2023-02-01T14:09:48;17.25;;;3.92;;
35971;SDS011;22052;0.000;0.000;2023-02-01T14:15:33;15.07;;;3.60;;
35971;SDS011;22052;0.000;0.000;2023-02-01T14:17:53;16.70;;;3.17;;
35971;SDS011;22052;0.000;0.000;2023-02-01T14:23:29;14.43;;;3.85;;
35971;SDS011;22052;0.000;0.000;2023-02-01T14:26:01;12.25;;;3.83;;
35971;SDS011;22052;0.000;0.000;2023-02-01T14:28:29;23.93;;;4.30;;
35971;SDS011;22052;0.000;0.000;2023-02-01T14:30:56;13.80;;;3.90;;
35971;SDS011;22052;0.000;0.000;2023-02-01T14:33:24;16.15;;;3.42;;
35971;SDS011;22052;0.000;0.000;2023-02-01T14:36:06;16.95;;;3.88;;
35971;SDS011;22052;0.000;0.000;2023-02-01T14:38:33;23.23;;;4.20;;
35971;SDS011;22052;0.000;0.000;2023-02-01T14:49:14;18.25;;;3.97;;
35971;SDS011;22052;0.000;0.000;2023-02-01T14:51:41;14.93;;;3.45;;
35971;SDS011;22052;0.000;0.000;2023-02-01T14:54:08;13.98;;;3.80;;
35971;SDS011;22052;0.000;0.000;2023-02-01T14:56:38;16.05;;;4.13;;
35971;SDS011;22052;0.000;0.000;2023-02-01T14:59:08;14.02;;;3.60;;
35971;SDS011;22052;0.000;0.000;2023-02-01T15:01:46;18.33;;;3.80;;
35971;SDS011;22052;0.000;0.000;2023-02-01T15:04:14;14.20;;;4.30;;
35971;SDS011;22052;0.000;0.000;2023-02-01T15:07:04;13.43;;;3.67;;
35971;SDS011;22052;0.000;0.000;2023-02-01T15:10:05;16.65;;;3.78;;
35971;SDS011;22052;0.000;0.000;2023-02-01T15:12:27;15.90;;;4.13;;
35971;SDS011;22052;0.000;0.000;2023-02-01T15:17:35;20.30;;;4.45;;
35971;SDS011;22052;0.000;0.000;2023-02-01T15:22:29;13.57;;;3.80;;
35971;SDS011;22052;0.000;0.000;2023-02-01T15:24:56;11.05;;;3.63;;
35971;SDS011;22052;0.000;0.000;2023-02-01T15:27:23;18.92;;;4.28;;
35971;SDS011;22052;0.000;0.000;2023-02-01T15:29:50;17.48;;;3.70;;
35971;SDS011;22052;0.000;0.000;2023-02-01T15:32:29;16.58;;;3.97;;
35971;SDS011;22052;0.000;0.000;2023-02-01T15:34:56;16.77;;;4.05;;
35971;SDS011;22052;0.000;0.000;2023-02-01T15:37:23;17.45;;;4.47;;
35971;SDS011;22052;0.000;0.000;2023-02-01T15:40:05;18.25;;;3.90;;
35971;SDS011;22052;0.000;0.000;2023-02-01T15:42:33;16.80;;;4.40;;
35971;SDS011;22052;0.000;0.000;2023-02-01T15:45:00;22.23;;;3.67;;
35971;SDS011;22052;0.000;0.000;2023-02-01T15:47:28;17.48;;;3.75;;
35971;SDS011;22052;0.000;0.000;2023-02-01T15:49:59;15.65;;;3.58;;
35971;SDS011;22052;0.000;0.000;2023-02-01T15:52:41;15.18;;;4.00;;
35971;SDS011;22052;0.000;0.000;2023-02-01T15:55:20;13.98;;;3.85;;
35971;SDS011;22052;0.000;0.000;2023-02-01T15:57:49;14.25;;;3.95;;
35971;SDS011;22052;0.000;0.000;2023-02-01T16:00:25;14.55;;;3.78;;
35971;SDS011;22052;0.000;0.000;2023-02-01T16:03:02;12.45;;;4.43;;
35971;SDS011;22052;0.000;0.000;2023-02-01T16:05:34;10.52;;;3.95;;
35971;SDS011;22052;0.000;0.000;2023-02-01T16:08:19;12.55;;;3.53;;
35971;SDS011;22052;0.000;0.000;2023-02-01T16:10:47;15.20;;;3.80;;
35971;SDS011;22052;0.000;0.000;2023-02-01T16:13:14;14.98;;;3.63;;
35971;SDS011;22052;0.000;0.000;2023-02-01T16:15:41;18.60;;;4.55;;
35971;SDS011;22052;0.000;0.000;2023-02-01T16:18:10;10.65;;;3.92;;
35971;SDS011;22052;0.000;0.000;2023-02-01T16:20:37;14.77;;;3.95;;
35971;SDS011;22052;0.000;0.000;2023-02-01T16:23:05;14.60;;;4.20;;
35971;SDS011;22052;0.000;0.000;2023-02-01T16:25:31;11.98;;;3.63;;
35971;SDS011;22052;0.000;0.000;2023-02-01T16:27:57;15.00;;;4.28;;
35971;SDS011;22052;0.000;0.000;2023-02-01T16:30:24;16.15;;;3.85;;
35971;SDS011;22052;0.000;0.000;2023-02-01T16:32:53;14.00;;;3.80;;
35971;SDS011;22052;0.000;0.000;2023-02-01T16:35:24;12.48;;;3.55;;
35971;SDS011;22052;0.000;0.000;2023-02-01T16:37:51;9.88;;;3.63;;
35971;SDS011;22052;0.000;0.000;2023-02-01T16:40:18;11.90;;;4.13;;
35971;SDS011;22052;0.000;0.000;2023-02-01T16:42:47;16.63;;;3.85;;
35971;SDS011;22052;0.000;0.000;2023-02-01T16:45:14;16.75;;;4.13;;
35971;SDS011;22052;0.000;0.000;2023-02-01T16:47:40;13.40;;;3.95;;
35971;SDS011;22052;0.000;0.000;2023-02-01T16:50:20;18.83;;;4.13;;
35971;SDS011;22052;0.000;0.000;2023-02-01T16:52:47;18.58;;;4.50;;
35971;SDS011;22052;0.000;0.000;2023-02-01T16:55:15;15.25;;;4.10;;
35971;SDS011;22052;0.000;0.000;2023-02-01T16:57:42;13.90;;;3.95;;
35971;SDS011;22052;0.000;0.000;2023-02-01T17:00:09;11.57;;;4.32;;
35971;SDS011;22052;0.000;0.000;2023-02-01T17:02:36;15.27;;;4.03;;
35971;SDS011;22052;0.000;0.000;2023-02-01T17:05:03;22.35;;;4.15;;
35971;SDS011;22052;0.000;0.000;2023-02-01T17:07:29;13.75;;;3.63;;
35971;SDS011;22052;0.000;0.000;2023-02-01T17:09:55;16.65;;;4.13;;
35971;SDS011;22052;0.000;0.000;2023-02-01T17:12:22;13.25;;;3.63;;
35971;SDS011;22052;0.000;0.000;2023-02-01T17:14:49;14.68;;;3.63;;
35971;SDS011;22052;0.000;0.000;2023-02-01T17:17:15;16.08;;;3.75;;
35971;SDS011;22052;0.000;0.000;2023-02-01T17:19:42;15.20;;;3.60;;
35971;SDS011;22052;0.000;0.000;2023-02-01T17:22:09;16.58;;;4.25;;
35971;SDS011;22052;0.000;0.000;2023-02-01T17:24:35;20.20;;;4.15;;
35971;SDS011;22052;0.000;0.000;2023-02-01T17:27:01;15.50;;;3.42;;
35971;SDS011;22052;0.000;0.000;2023-02-01T17:29:30;16.20;;;4.28;;
35971;SDS011;22052;0.000;0.000;2023-02-01T17:31:57;20.73;;;3.97;;
35971;SDS011;22052;0.000;0.000;2023-02-01T17:34:24;13.25;;;3.78;;
35971;SDS011;22052;0.000;0.000;2023-02-01T17:36:51;18.05;;;4.13;;
35971;SDS011;22052;0.000;0.000;2023-02-01T17:39:17;11.82;;;3.83;;
35971;SDS011;22052;0.000;0.000;2023-02-01T17:42:08;13.15;;;3.55;;
35971;SDS011;22052;0.000;0.000;2023-02-01T17:44:35;13.38;;;4.05;;
35971;SDS011;22052;0.000;0.000;2023-02-01T17:47:01;13.57;;;4.18;;
35971;SDS011;22052;0.000;0.000;2023-02-01T17:49:27;20.08;;;4.10;;
35971;SDS011;22052;0.000;0.000;2023-02-01T17:51:54;11.73;;;3.80;;
35971;SDS011;22052;0.000;0.000;2023-02-01T17:54:21;12.77;;;3.72;;
35971;SDS011;22052;0.000;0.000;2023-02-01T17:56:47;12.93;;;3.50;;
35971;SDS011;22052;0.000;0.000;2023-02-01T17:59:14;16.80;;;4.35;;
35971;SDS011;22052;0.000;0.000;2023-02-01T18:01:41;13.30;;;3.72;;
35971;SDS011;22052;0.000;0.000;2023-02-01T18:04:12;12.02;;;3.78;;
35971;SDS011;22052;0.000;0.000;2023-02-01T18:06:38;14.07;;;3.83;;
35971;SDS011;22052;0.000;0.000;2023-02-01T18:09:04;13.60;;;3.50;;
35971;SDS011;22052;0.000;0.000;2023-02-01T18:11:31;13.65;;;3.92;;
35971;SDS011;22052;0.000;0.000;2023-02-01T18:13:58;12.30;;;3.60;;
35971;SDS011;22052;0.000;0.000;2023-02-01T18:16:25;16.45;;;4.25;;